Airfield :
LOGIN :

Register | Disclaimer

   EN    FR    IT 

 










Legend :    VFR   Marginal VFR   IFR   Intensive IFR   Very Intensive IFR
Visi :
Ceiling :
>= 8 km
>= 3000ft
5 to 8 km
1000 to 3000 ft
1500m to 5 km
500 to 1000 ft
800 to 1500m
200 to 500 ft
< 800m
< 200 ft
Symbols :   Thunderstorms  Fog  Heavy snow  Heavy precipitations  Wind > 20 kt
SIGMETs :     Misc.  Thunderstorms  Icing  Turbulence  Mountain Waves  Volcanic Ashes







- Airport Elevation : 1475 ft


LSZC - Buochs Stans

CURRENT METAR :
  • 212120Z AUTO VRB02KT 9999 // BKN037 BKN042 18/16 Q1020

EXPIRED METARs :
  • 212050Z AUTO 07005KT 350V150 9999 // BKN060 SCT080 20/15 Q1020
  • 212020Z AUTO VRB06KT 9999 // BKN050 BKN070 21/14 Q1019
  • 211950Z AUTO VRB03KT 9999 // SCT045 SCT070 BKN120 23/13 Q1018
  • 211920Z AUTO VRB03KT 9999 // BKN050 SCT070 22/15 Q1018
  • 211850Z AUTO VRB04KT 9999 // OVC060 SCT080 22/15 Q1018

Expired Forecast.
No reported NOTAMs for that airfield.



MET'MAP, your aeronautical weather chart ! - Copyright ORBIFLY December 2007 - Disclaimer

ORBIFLY MET'MAP TEAM :

Programming & Development : Alexandra Zaïnal
Concept & Development : Baudouin d'Aumeries
Co-Development & Prog : Marc-Olivier Méhu
Technical & hardware support : Manuel Goepfert

Contact : metmap@orbifly.com




SOURCES & CREDITS :

   NOAA